• Join FlightAware (Why Join?)
  • Login
  • US Flag 
10:09PM EST


 

Airport Tracker/Info


-or-


 

Live Flight TrackerFlight Track Log ✈ SWA2236 ✈ 14-Jul-2013 ✈ KLAS - KJAX

Flight Track Log - Related Links

Times and Time Zones

All times are in EDT time to prevent confusion due to time zone crossing. See the SWA2236 flight status page for this flight to view local times or setup timezone preferences in your user account.

Time Position Orientation Groundspeed Altitude Reporting Facility
EDT Latitude Longitude Course Direction KTS MPH feet Rate Location/Type
02:37PM 36.0753 -115.2244 92° East 206 237 4,300  Level Los Angeles Center
02:38PM 36.0264 -115.2775 221° Southwest 270 311 6,000 1,860 Climbing Los Angeles Center
02:39PM 35.9697 -115.2989 197° South 275 316 7,800 1,500 Climbing Los Angeles Center
02:40PM 35.9239 -115.2131 123° Southeast 297 342 9,100 1,200 Climbing Los Angeles Center
02:41PM 35.9233 -115.1289 90° East 300 345 10,300 1,440 Climbing Los Angeles Center
02:42PM 36.0653 -114.5589 92° East  Level Estimated
02:42PM 35.9233 -115.0214 90° East 308 354 11,900  Level Los Angeles Center
02:43PM 35.9242 -114.8722 90° East 351 404 14,300 2,400 Climbing Los Angeles Center
02:44PM 35.9239 -114.7425 90° East 371 427 16,900 2,280 Climbing Los Angeles Center
02:45PM 35.9242 -114.6081 90° East 386 444 19,100 2,040 Climbing Los Angeles Center
02:46PM 35.9244 -114.4672 90° East 401 461 21,200 1,920 Climbing Los Angeles Center
02:47PM 35.9236 -114.3217 90° East 417 480 23,100 1,920 Climbing Los Angeles Center
02:48PM 35.9236 -114.1442 90° East 429 494 25,200 1,740 Climbing Los Angeles Center
02:49PM 35.9233 -113.9900 90° East 441 507 26,700 1,440 Climbing Los Angeles Center
02:50PM 35.9150 -113.8339 94° East 452 520 28,200 1,380 Climbing Los Angeles Center
02:51PM 35.8878 -113.6803 102° East 458 527 29,600 1,260 Climbing Los Angeles Center
02:52PM 35.8628 -113.5211 101° East 464 534 30,900 1,260 Climbing Los Angeles Center
02:53PM 35.8389 -113.3633 101° East 468 539 32,300 1,440 Climbing Los Angeles Center
02:54PM 35.8139 -113.2072 101° East 468 539 33,900 1,260 Climbing Los Angeles Center
02:55PM 35.7839 -113.0228 101° East 463 533 35,000 480 Climbing Los Angeles Center
02:56PM 35.7589 -112.8686 101° East 460 529 35,000 180 Level Los Angeles Center
02:57PM 35.7328 -112.7139 102° East 460 529 35,400 720 Climbing Los Angeles Center
02:58PM 35.7067 -112.5592 102° East 461 531 36,600 720 Climbing Los Angeles Center
02:59PM 35.6808 -112.4050 102° East 461 531 37,000 180 Climbing Los Angeles Center
03:00PM 35.6533 -112.2522 102° East 459 528 37,000  Level Los Angeles Center
03:01PM 35.6236 -112.0686 101° East 457 526 37,000  Level Los Angeles Center
03:02PM 35.6272 -111.9119 88° East 461 531 37,000  Level Los Angeles Center
03:03PM 35.6325 -111.7561 88° East 459 528 37,000  Level Los Angeles Center
03:05PM 35.6367 -111.6011 88° East 457 526 37,000  Level Los Angeles Center
03:05PM 35.6400 -111.4758 88° East 459 528 37,000  Level Albuquerque Center
03:06PM 35.6464 -111.2881 88° East 454 522 37,000  Level Albuquerque Center
03:07PM 35.6506 -111.1397 88° East 454 522 37,000  Level Albuquerque Center
03:08PM 35.6531 -110.9675 89° East 452 520 37,000  Level Albuquerque Center
03:09PM 35.6578 -110.8200 88° East 452 520 37,000  Level Albuquerque Center
03:11PM 35.6606 -110.6725 89° East 451 519 37,000  Level Albuquerque Center
03:12PM 35.6639 -110.4997 89° East 453 521 37,000  Level Albuquerque Center
03:13PM 35.6683 -110.3511 88° East 454 522 37,000  Level Albuquerque Center
03:14PM 35.6722 -110.1767 88° East 456 525 37,000  Level Albuquerque Center
03:15PM 35.6747 -110.0275 89° East 456 525 37,000  Level Albuquerque Center
03:16PM 35.6769 -109.8508 89° East 461 531 37,000  Level Albuquerque Center
03:17PM 35.6797 -109.6992 89° East 463 533 37,000  Level Albuquerque Center
03:18PM 35.6819 -109.5225 89° East 464 534 37,000  Level Albuquerque Center
03:19PM 35.6831 -109.3711 89° East 464 534 37,000  Level Albuquerque Center
03:20PM 35.6850 -109.2194 89° East 465 535 37,000  Level Albuquerque Center
03:21PM 35.6861 -109.0447 90° East 462 532 37,000  Level Albuquerque Center
03:22PM 35.6878 -108.8961 89° East 459 528 37,000  Level Albuquerque Center
03:23PM 35.6894 -108.7247 89° East 455 524 37,000  Level Albuquerque Center
03:24PM 35.6894 -108.5772 90° East 454 522 37,000  Level Albuquerque Center
03:25PM 35.6911 -108.4064 89° East 451 519 37,000  Level Albuquerque Center
03:26PM 35.6919 -108.2597 90° East 451 519 37,000  Level Albuquerque Center
03:27PM 35.6914 -108.0892 90° East 449 517 37,000  Level Albuquerque Center
03:28PM 35.6906 -107.9425 90° East 448 516 37,000  Level Albuquerque Center
03:29PM 35.6825 -107.7708 93° East 451 519 37,000  Level Albuquerque Center
03:30PM 35.6650 -107.6233 98° East 455 524 37,000  Level Albuquerque Center
03:31PM 35.6483 -107.4506 97° East 455 524 37,000  Level Albuquerque Center
03:32PM 35.6361 -107.3025 96° East 456 525 37,000  Level Albuquerque Center
03:33PM 35.6200 -107.1469 97° East 456 525 37,000  Level Albuquerque Center
03:34PM 35.6064 -106.9908 96° East 456 525 37,000  Level Albuquerque Center
03:35PM 35.5911 -106.8358 97° East 454 522 37,000  Level Albuquerque Center
03:36PM 35.5750 -106.6808 97° East 454 522 37,000  Level Albuquerque Center
03:37PM 35.5592 -106.5264 97° East 454 522 37,000  Level Albuquerque Center
03:38PM 35.5439 -106.3728 97° East 452 520 37,000  Level Albuquerque Center
03:39PM 35.5239 -106.1894 98° East 451 519 37,000  Level Albuquerque Center
03:40PM 35.5083 -106.0358 97° East 451 519 37,000  Level Albuquerque Center
03:41PM 35.4919 -105.8822 97° East 452 520 37,000  Level Albuquerque Center
03:42PM 35.4747 -105.7378 98° East 452 520 37,000  Level Albuquerque Center
03:43PM 35.4553 -105.5567 97° East 454 522 37,000  Level Albuquerque Center
03:45PM 35.4161 -105.4092 108° East 451 519 37,000  Level Albuquerque Center
03:46PM 35.3578 -105.2694 117° Southeast 456 525 37,000  Level Albuquerque Center
03:47PM 35.3247 -105.1189 105° East 462 532 37,000  Level Albuquerque Center
03:48PM 35.3083 -104.9647 97° East 454 522 37,000  Level Albuquerque Center
03:49PM 35.2908 -104.8114 98° East 450 518 37,000  Level Albuquerque Center
03:50PM 35.2739 -104.6575 98° East 452 520 37,000  Level Albuquerque Center
03:51PM 35.2569 -104.4936 97° East 455 524 37,000  Level Albuquerque Center
03:52PM 35.2392 -104.3419 98° East 452 520 37,000  Level Albuquerque Center
03:53PM 35.2217 -104.1889 98° East 454 522 37,000  Level Albuquerque Center
03:54PM 35.2033 -104.0383 98° East 452 520 37,000  Level Albuquerque Center
03:55PM 35.1842 -103.8747 98° East 455 524 37,000  Level Albuquerque Center
03:56PM 35.1625 -103.6964 98° East 452 520 37,000  Level Albuquerque Center
03:57PM 35.1442 -103.5453 98° East 448 516 37,000  Level Albuquerque Center
03:58PM 35.1256 -103.3928 98° East 450 518 37,000  Level Albuquerque Center
03:59PM 35.1069 -103.2406 98° East 450 518 37,000  Level Albuquerque Center
04:00PM 35.0869 -103.0878 99° East 452 520 37,000  Level Albuquerque Center
04:01PM 35.0656 -102.9217 99° East 449 517 37,000  Level Albuquerque Center
04:02PM 35.0464 -102.7703 99° East 452 520 37,000  Level Albuquerque Center
04:03PM 35.0258 -102.6194 99° East 453 521 37,000  Level Albuquerque Center
04:04PM 35.0061 -102.4692 99° East 452 520 37,000  Level Albuquerque Center
04:05PM 34.9869 -102.3189 99° East 451 519 37,000  Level Albuquerque Center
04:06PM 34.9658 -102.1686 100° East 452 520 37,000  Level Albuquerque Center
04:07PM 34.9411 -101.9900 100° East 451 519 37,000  Level Albuquerque Center
04:08PM 34.9211 -101.8422 99° East 449 517 37,000  Level Albuquerque Center
04:09PM 34.9000 -101.6953 100° East 447 514 37,000  Level Albuquerque Center
04:10PM 34.8806 -101.5469 99° East 449 517 37,000  Level Albuquerque Center
04:11PM 34.8603 -101.3992 99° East 447 514 37,000  Level Albuquerque Center
04:12PM 34.8350 -101.2225 100° East 446 513 37,000  Level Albuquerque Center
04:13PM 34.8144 -101.0753 100° East 445 512 37,000  Level Albuquerque Center
04:14PM 34.7925 -100.9275 100° East 446 513 37,000  Level Albuquerque Center
04:15PM 34.7714 -100.7786 100° East 447 514 37,000  Level Albuquerque Center
04:16PM 34.7492 -100.6297 100° East 449 517 37,000  Level Albuquerque Center
04:17PM 34.7278 -100.4817 100° East 447 514 37,000  Level Albuquerque Center
04:19PM 34.7019 -100.3075 100° East 450 518 37,000  Level Albuquerque Center
04:20PM 34.6783 -100.1556 101° East 455 524 37,000  Level Albuquerque Center
04:21PM 34.6550 -100.0036 101° East 457 526 37,000  Level Albuquerque Center
04:22PM 34.6322 -99.8517 100° East 457 526 37,000  Level Albuquerque Center
04:23PM 34.6086 -99.7003 101° East 457 526 37,000  Level Albuquerque Center
04:24PM 34.5847 -99.5503 101° East 454 522 37,000  Level Albuquerque Center
04:25PM 34.5614 -99.4008 101° East 452 520 37,000  Level Albuquerque Center
04:26PM 34.5328 -99.2194 101° East 455 524 37,000  Level Albuquerque Center
04:27PM 34.5083 -99.0714 101° East 451 519 37,000  Level Albuquerque Center
04:28PM 34.4794 -98.9050 102° East 447 514 37,000  Level Fort Worth Center
04:29PM 34.4542 -98.7533 101° East 447 514 37,000  Level Fort Worth Center
04:30PM 34.4286 -98.6019 102° East 452 520 37,000  Level Fort Worth Center
04:31PM 34.4047 -98.4531 101° East 452 520 37,000  Level Fort Worth Center
04:32PM 34.3747 -98.2767 102° East 461 531 37,000  Level Fort Worth Center
04:33PM 34.3467 -98.1228 102° East 471 542 37,000  Level Fort Worth Center
04:34PM 34.3203 -97.9667 102° East 471 542 37,000  Level Fort Worth Center
04:35PM 34.2936 -97.8081 101° East 471 542 37,000  Level Fort Worth Center
04:36PM 34.2650 -97.6497 102° East 471 542 37,000  Level Fort Worth Center
04:37PM 34.2381 -97.4864 101° East 477 549 37,000  Level Fort Worth Center
04:38PM 34.2108 -97.3281 102° East 482 555 37,000  Level Fort Worth Center
04:39PM 34.1794 -97.1675 103° East 487 560 37,000  Level Fort Worth Center
04:40PM 34.1519 -97.0094 102° East 487 560 37,000  Level Fort Worth Center
04:41PM 34.1219 -96.8489 103° East 487 560 37,000  Level Fort Worth Center
04:42PM 34.1006 -96.7211 101° East 487 560 37,000  Level Fort Worth Center
04:43PM 34.0744 -96.5433 100° East 487 560 37,000  Level Fort Worth Center
04:44PM 34.0419 -96.3808 104° East 487 560 37,000  Level Fort Worth Center
04:45PM 34.0133 -96.2208 102° East 487 560 37,000  Level Fort Worth Center
04:46PM 33.9803 -96.0458 103° East 487 560 37,000  Level Fort Worth Center
04:47PM 33.9514 -95.8886 102° East 487 560 37,000  Level Fort Worth Center
04:48PM 33.9178 -95.7214 104° East 492 566 37,000  Level Fort Worth Center
04:49PM 33.8864 -95.5644 104° East 492 566 37,000  Level Fort Worth Center
04:50PM 33.8547 -95.4025 103° East 486 559 37,000  Level Fort Worth Center
04:51PM 33.8228 -95.2408 103° East 486 559 37,000  Level Fort Worth Center
04:52PM 33.7906 -95.0767 103° East 491 565 37,000  Level Fort Worth Center
04:53PM 33.7603 -94.9150 103° East 491 565 37,000  Level Fort Worth Center
04:54PM 33.7256 -94.7486 104° East 496 571 37,000  Level Fort Worth Center
04:55PM 33.6950 -94.5825 102° East 501 577 37,000  Level Fort Worth Center
04:56PM 33.6619 -94.4164 103° East 507 583 37,000  Level Fort Worth Center
04:57PM 33.6286 -94.2528 104° East 507 583 37,000  Level Fort Worth Center
04:58PM 33.5972 -94.0894 103° East 507 583 37,000  Level Fort Worth Center
04:59PM 33.5683 -93.9433 103° East 507 583 37,000  Level Fort Worth Center
05:00PM 33.5344 -93.7803 104° East 507 583 37,000  Level Fort Worth Center
05:01PM 33.5006 -93.6197 104° East 507 583 37,000  Level Fort Worth Center
05:02PM 33.4642 -93.4594 105° East 507 583 37,000  Level Fort Worth Center
05:03PM 33.4300 -93.3017 105° East 497 572 37,000  Level Fort Worth Center
05:04PM 33.3975 -93.1439 104° East 489 563 37,000  Level Fort Worth Center
05:05PM 33.3628 -92.9864 105° East 489 563 37,000  Level Fort Worth Center
05:06PM 33.3300 -92.8267 104° East 489 563 37,000  Level Fort Worth Center
05:07PM 33.2994 -92.6767 104° East 484 557 37,000  Level Fort Worth Center
05:08PM 33.2600 -92.5222 107° East 484 557 37,000  Level Fort Worth Center
05:09PM 33.2311 -92.3700 103° East 479 551 37,000  Level Fort Worth Center
05:10PM 33.1744 -92.1692 109° East 492 566 37,000 120 Level Memphis Center
05:11PM 33.1203 -92.0092 112° Southeast 472 543 37,400 660 Climbing Memphis Center
05:12PM 33.0719 -91.8694 112° Southeast 467 537 38,400 780 Climbing Memphis Center
05:13PM 33.0422 -91.7278 104° East 451 519 39,000 300 Climbing Memphis Center
05:14PM 33.0189 -91.5811 101° East 438 504 39,000  Level Memphis Center
05:15PM 33.0056 -91.4372 96° East 438 504 39,000  Level Memphis Center
05:16PM 32.9942 -91.2911 95° East 433 498 39,000  Level Memphis Center
05:17PM 32.9867 -91.1472 94° East 433 498 39,000  Level Memphis Center
05:18PM 32.9689 -91.0061 99° East 433 498 39,000  Level Memphis Center
05:19PM 32.9339 -90.8672 107° East 433 498 39,000  Level Memphis Center
05:21PM 32.8872 -90.7069 109° East  Level FlightAware Approximate
05:21PM 32.8658 -90.6094 109° East 433 498 39,000  Level Memphis Center
05:22PM 32.8325 -90.4758 107° East 423 487 39,000  Level Memphis Center
05:23PM 32.7972 -90.3450 108° East 423 487 39,000  Level Memphis Center
05:24PM 32.7617 -90.2189 109° East 417 480 39,000  Level Memphis Center
05:25PM 32.7258 -90.0906 108° East 417 480 39,000  Level Memphis Center
05:26PM 32.6922 -89.9622 107° East 407 468 39,000  Level Memphis Center
05:27PM 32.6583 -89.8392 108° East 401 461 39,000  Level Memphis Center
05:28PM 32.6264 -89.7158 107° East 401 461 39,000  Level Memphis Center
05:29PM 32.5922 -89.5806 107° East 396 456 39,000  Level Memphis Center
05:30PM 32.5600 -89.4575 107° East 391 450 39,000  Level Memphis Center
05:31PM 32.5258 -89.3347 108° East 391 450 39,000  Level Memphis Center
05:32PM 32.4933 -89.2119 107° East 386 444 39,000  Level Memphis Center
05:33PM 32.4586 -89.0894 109° East 386 444 39,000  Level Memphis Center
05:34PM 32.4200 -88.9692 111° Southeast 386 444 39,000  Level Memphis Center
05:35PM 32.3642 -88.8569 120° Southeast 386 444 39,000  Level Memphis Center
05:37PM 32.2728 -88.6814 122° Southeast 385 443 39,000  Level Atlanta Center
05:38PM 32.2164 -88.5731 122° Southeast 380 437 39,000  Level Atlanta Center
05:39PM 32.1678 -88.4772 121° Southeast 380 437 39,000  Level Atlanta Center
05:40PM 32.1092 -88.3664 122° Southeast 387 445 39,000  Level Atlanta Center
05:41PM 32.0525 -88.2558 121° Southeast 393 452 39,000  Level Atlanta Center
05:42PM 31.9936 -88.1431 122° Southeast 393 452 39,000  Level Atlanta Center
05:44PM 31.8906 -87.9425 121° Southeast 395 455 39,000  Level Jacksonville Center
05:45PM 31.8367 -87.8294 119° Southeast 395 455 39,000  Level Jacksonville Center
05:46PM 31.7931 -87.7100 113° Southeast 395 455 39,000  Level Jacksonville Center
05:47PM 31.7517 -87.5881 112° Southeast 390 449 39,000  Level Jacksonville Center
05:48PM 31.7103 -87.4689 112° Southeast 396 456 39,000  Level Jacksonville Center
05:49PM 31.6667 -87.3469 113° Southeast 396 456 39,000  Level Jacksonville Center
05:50PM 31.6242 -87.2450 116° Southeast 396 456 39,000  Level Jacksonville Center
05:51PM 31.5844 -87.1211 111° Southeast 396 456 39,000  Level Jacksonville Center
05:52PM 31.5722 -86.9914 96° East 396 456 39,000  Level Jacksonville Center
05:53PM 31.5597 -86.8592 96° East 396 456 39,000  Level Jacksonville Center
05:54PM 31.5450 -86.7269 97° East 402 463 39,000  Level Jacksonville Center
05:55PM 31.5319 -86.5972 97° East 402 463 39,000  Level Jacksonville Center
05:56PM 31.5192 -86.4653 96° East 407 468 39,000  Level Jacksonville Center
05:57PM 31.5108 -86.3164 94° East 407 468 39,000  Level Jacksonville Center
05:58PM 31.5142 -86.1822 88° East 407 468 39,000  Level Jacksonville Center
05:59PM 31.5156 -86.0458 89° East 407 468 39,000  Level Jacksonville Center
06:00PM 31.5169 -85.9094 89° East 407 468 39,000  Level Jacksonville Center
06:01PM 31.5158 -85.7731 91° East 407 468 39,000  Level Jacksonville Center
06:02PM 31.5186 -85.6417 89° East 407 468 39,000  Level Jacksonville Center
06:03PM 31.5153 -85.5075 92° East 407 468 39,000  Level Jacksonville Center
06:04PM 31.5097 -85.3708 93° East 407 468 39,000  Level Jacksonville Center
06:05PM 31.4703 -85.2456 110° East 402 463 39,000  Level Jacksonville Center
06:06PM 31.4267 -85.1253 113° Southeast 407 468 39,000 -300 Level Jacksonville Center
06:07PM 31.3869 -85.0025 111° Southeast 407 468 38,500 -780 Descending Jacksonville Center
06:08PM 31.3408 -84.8750 113° Southeast 412 474 37,500 -960 Descending Jacksonville Center
06:09PM 31.2969 -84.7453 112° Southeast 417 480 36,600 -960 Descending Jacksonville Center
06:10PM 31.2508 -84.6181 113° Southeast 417 480 35,600 -840 Descending Jacksonville Center
06:11PM 31.2044 -84.4883 113° Southeast 417 480 35,000 -420 Descending Jacksonville Center
06:12PM 31.1642 -84.3542 109° East 422 486 34,800 -300 Descending Jacksonville Center
06:13PM 31.1303 -84.2225 107° East 422 486 34,400 -480 Descending Jacksonville Center
06:14PM 31.0919 -84.0861 108° East 427 491 33,900 -660 Descending Jacksonville Center
06:15PM 31.0450 -83.9569 113° Southeast 427 491 33,100 -1,740 Descending Jacksonville Center
06:16PM 30.9981 -83.8378 115° Southeast 440 506 30,500 -2,340 Descending Jacksonville Center
06:17PM 30.9489 -83.7064 114° Southeast 440 506 28,500 -1,620 Descending Jacksonville Center
06:18PM 30.8994 -83.5728 113° Southeast 440 506 27,300 -1,200 Descending Jacksonville Center
06:19PM 30.8500 -83.4444 114° Southeast 440 506 26,100 -1,200 Descending Jacksonville Center
06:20PM 30.8086 -83.3256 112° Southeast 424 488 25,000 -1,080 Descending Jacksonville Center
06:21PM 30.7631 -83.2117 115° Southeast 404 465 24,000 -1,020 Descending Jacksonville Center
06:22PM 30.7172 -83.0981 115° Southeast 389 448 23,000 -1,020 Descending Jacksonville Center
06:23PM 30.6758 -82.9892 114° Southeast 376 433 22,000 -1,080 Descending Jacksonville Center
06:24PM 30.6319 -82.8781 115° Southeast 369 425 20,900 -1,200 Descending Jacksonville Center
06:25PM 30.5900 -82.7719 115° Southeast 363 418 19,600 -1,740 Descending Jacksonville Center
06:26PM 30.5503 -82.6658 113° Southeast 363 418 17,500 -2,520 Descending Jacksonville Center
06:27PM 30.5125 -82.5767 116° Southeast 367 422 15,200 -2,880 Descending Jacksonville Center
06:28PM 30.5183 -82.4608 87° East 373 429 12,400 -2,160 Descending Jacksonville Center
06:29PM 30.5472 -82.3425 74° East 347 399 10,900 -1,080 Descending Jacksonville Center
06:29PM 30.5700 -82.2822 66° East 292 336 10,600 -720 Descending Jacksonville Center
06:30PM 30.5947 -82.2264 63° Northeast 306 352 9,900 -1,380 Descending Jacksonville Center
06:31PM 30.6297 -82.1514 62° Northeast 280 322 8,300 -1,500 Descending Jacksonville Center
06:32PM 30.6628 -82.0739 64° Northeast 268 308 7,000 -1,440 Descending Jacksonville Center
06:33PM 30.6872 -81.9964 70° East 255 293 5,500 -1,380 Descending Jacksonville Center
06:34PM 30.6764 -81.9531 106° East 235 270 4,900 -1,260 Descending Jacksonville Center
06:34PM 30.6406 -81.9003 128° Southeast 233 268 3,700 -1,080 Descending Jacksonville Center
06:35PM 30.6175 -81.8739 135° Southeast 214 246 3,400 -840 Descending Jacksonville Center
06:36PM 30.5772 -81.8211 132° Southeast 220 253 2,500 -900 Descending Jacksonville Center
06:37PM 30.5331 -81.7614 131° Southeast 141 162 1,300 -840 Descending Jacksonville Center
06:38PM 30.5033 -81.7233 132° Southeast 129 148 500 -720 Descending Jacksonville Center
06:40PM 30.4941 -81.6879 131° Southeast  Level Estimated
06:47PM 30.4941 -81.6879 311° West  Level Estimated